sensor_id;sensor_type;location;lat;lon;timestamp;pressure;altitude;pressure_sealevel;temperature;humidity
20350;BME280;10332;50.208;18.988;2023-04-19T00:02:23;98245.91;;;14.33;81.93
20350;BME280;10332;50.208;18.988;2023-04-19T00:04:52;98243.56;;;14.30;81.84
20350;BME280;10332;50.208;18.988;2023-04-19T00:07:19;98236.38;;;14.32;81.55
20350;BME280;10332;50.208;18.988;2023-04-19T00:09:47;98234.47;;;14.34;81.43
20350;BME280;10332;50.208;18.988;2023-04-19T00:12:14;98235.28;;;14.35;81.50
20350;BME280;10332;50.208;18.988;2023-04-19T00:14:41;98223.00;;;14.35;81.14
20350;BME280;10332;50.208;18.988;2023-04-19T00:17:09;98223.69;;;14.37;81.28
20350;BME280;10332;50.208;18.988;2023-04-19T00:19:37;98220.38;;;14.35;81.17
20350;BME280;10332;50.208;18.988;2023-04-19T00:22:05;98223.94;;;14.34;81.24
20350;BME280;10332;50.208;18.988;2023-04-19T00:24:32;98214.75;;;14.29;81.59
20350;BME280;10332;50.208;18.988;2023-04-19T00:27:00;98211.06;;;14.31;81.96
20350;BME280;10332;50.208;18.988;2023-04-19T00:29:28;98217.38;;;14.29;81.72
20350;BME280;10332;50.208;18.988;2023-04-19T00:31:56;98221.25;;;14.25;81.94
20350;BME280;10332;50.208;18.988;2023-04-19T00:34:23;98217.78;;;14.24;81.67
20350;BME280;10332;50.208;18.988;2023-04-19T00:36:51;98214.44;;;14.22;81.48
20350;BME280;10332;50.208;18.988;2023-04-19T00:39:18;98206.69;;;14.20;81.65
20350;BME280;10332;50.208;18.988;2023-04-19T00:41:45;98206.56;;;14.22;81.58
20350;BME280;10332;50.208;18.988;2023-04-19T00:44:13;98206.09;;;14.17;81.27
20350;BME280;10332;50.208;18.988;2023-04-19T00:46:42;98196.22;;;14.09;81.41
20350;BME280;10332;50.208;18.988;2023-04-19T00:49:10;98196.81;;;14.02;81.64
20350;BME280;10332;50.208;18.988;2023-04-19T00:51:37;98189.59;;;13.94;82.16
20350;BME280;10332;50.208;18.988;2023-04-19T00:54:05;98186.63;;;13.87;82.11
20350;BME280;10332;50.208;18.988;2023-04-19T00:56:34;98185.72;;;13.66;83.19
20350;BME280;10332;50.208;18.988;2023-04-19T00:59:02;98188.44;;;13.64;82.86
20350;BME280;10332;50.208;18.988;2023-04-19T01:01:29;98186.63;;;13.65;82.46
20350;BME280;10332;50.208;18.988;2023-04-19T01:03:57;98177.59;;;13.69;82.52
20350;BME280;10332;50.208;18.988;2023-04-19T01:06:26;98174.72;;;13.72;82.11
20350;BME280;10332;50.208;18.988;2023-04-19T01:08:54;98172.09;;;13.72;82.01
20350;BME280;10332;50.208;18.988;2023-04-19T01:11:23;98177.34;;;13.72;82.04
20350;BME280;10332;50.208;18.988;2023-04-19T01:13:51;98178.78;;;13.76;81.74
20350;BME280;10332;50.208;18.988;2023-04-19T01:16:18;98175.53;;;13.73;81.66
20350;BME280;10332;50.208;18.988;2023-04-19T01:18:46;98167.66;;;13.73;81.34
20350;BME280;10332;50.208;18.988;2023-04-19T01:21:13;98165.66;;;13.76;81.63
20350;BME280;10332;50.208;18.988;2023-04-19T01:23:41;98157.03;;;13.74;81.42
20350;BME280;10332;50.208;18.988;2023-04-19T01:26:09;98160.19;;;13.68;81.54
20350;BME280;10332;50.208;18.988;2023-04-19T01:28:36;98147.53;;;13.62;81.47
20350;BME280;10332;50.208;18.988;2023-04-19T01:31:04;98149.72;;;13.57;81.64
20350;BME280;10332;50.208;18.988;2023-04-19T01:33:31;98146.03;;;13.48;81.79
20350;BME280;10332;50.208;18.988;2023-04-19T01:35:59;98138.75;;;13.52;81.41
20350;BME280;10332;50.208;18.988;2023-04-19T01:38:26;98145.66;;;13.53;81.36
20350;BME280;10332;50.208;18.988;2023-04-19T01:40:54;98129.78;;;13.54;81.21
20350;BME280;10332;50.208;18.988;2023-04-19T01:43:23;98133.50;;;13.52;81.36
20350;BME280;10332;50.208;18.988;2023-04-19T01:45:50;98135.16;;;13.53;80.93
20350;BME280;10332;50.208;18.988;2023-04-19T01:48:18;98126.59;;;13.51;80.87
20350;BME280;10332;50.208;18.988;2023-04-19T01:50:45;98127.41;;;13.51;80.88
20350;BME280;10332;50.208;18.988;2023-04-19T01:53:13;98127.41;;;13.51;80.60
20350;BME280;10332;50.208;18.988;2023-04-19T01:55:41;98127.75;;;13.47;80.67
20350;BME280;10332;50.208;18.988;2023-04-19T01:58:08;98123.97;;;13.51;80.43
20350;BME280;10332;50.208;18.988;2023-04-19T02:00:36;98133.00;;;13.47;80.57
20350;BME280;10332;50.208;18.988;2023-04-19T02:03:03;98131.13;;;13.49;80.64
20350;BME280;10332;50.208;18.988;2023-04-19T02:05:31;98128.50;;;13.49;80.53
20350;BME280;10332;50.208;18.988;2023-04-19T02:08:00;98120.16;;;13.44;80.75
20350;BME280;10332;50.208;18.988;2023-04-19T02:10:27;98122.28;;;13.39;80.51
20350;BME280;10332;50.208;18.988;2023-04-19T02:12:55;98116.94;;;13.40;80.72
20350;BME280;10332;50.208;18.988;2023-04-19T02:15:22;98116.22;;;13.38;80.49
20350;BME280;10332;50.208;18.988;2023-04-19T02:17:49;98110.13;;;13.38;80.58
20350;BME280;10332;50.208;18.988;2023-04-19T02:20:17;98113.84;;;13.35;80.48
20350;BME280;10332;50.208;18.988;2023-04-19T02:22:44;98110.66;;;13.31;80.47
20350;BME280;10332;50.208;18.988;2023-04-19T02:25:14;98101.22;;;13.29;80.26
20350;BME280;10332;50.208;18.988;2023-04-19T02:27:42;98097.44;;;13.22;80.63
20350;BME280;10332;50.208;18.988;2023-04-19T02:30:10;98090.84;;;13.16;80.73
20350;BME280;10332;50.208;18.988;2023-04-19T02:32:38;98092.75;;;13.14;80.64
20350;BME280;10332;50.208;18.988;2023-04-19T02:35:06;98083.94;;;13.15;80.54
20350;BME280;10332;50.208;18.988;2023-04-19T02:37:33;98090.84;;;13.16;80.72
20350;BME280;10332;50.208;18.988;2023-04-19T02:40:01;98095.13;;;13.17;80.61
20350;BME280;10332;50.208;18.988;2023-04-19T02:42:28;98093.47;;;13.16;80.86
20350;BME280;10332;50.208;18.988;2023-04-19T02:44:55;98090.13;;;13.14;80.94
20350;BME280;10332;50.208;18.988;2023-04-19T02:47:23;98084.19;;;13.12;80.92
20350;BME280;10332;50.208;18.988;2023-04-19T02:49:51;98082.63;;;13.10;80.93
20350;BME280;10332;50.208;18.988;2023-04-19T02:52:18;98090.59;;;13.08;80.87
20350;BME280;10332;50.208;18.988;2023-04-19T02:54:45;98086.44;;;13.05;81.00
20350;BME280;10332;50.208;18.988;2023-04-19T02:57:12;98083.94;;;13.04;81.21
20350;BME280;10332;50.208;18.988;2023-04-19T02:59:40;98083.59;;;12.97;81.23
20350;BME280;10332;50.208;18.988;2023-04-19T03:02:07;98069.28;;;13.01;81.15
20350;BME280;10332;50.208;18.988;2023-04-19T03:04:35;98074.41;;;12.92;81.49
20350;BME280;10332;50.208;18.988;2023-04-19T03:07:02;98067.13;;;12.62;82.77
20350;BME280;10332;50.208;18.988;2023-04-19T03:09:30;98047.72;;;12.42;84.02
20350;BME280;10332;50.208;18.988;2023-04-19T03:11:57;98040.44;;;12.23;85.76
20350;BME280;10332;50.208;18.988;2023-04-19T03:14:24;98043.69;;;12.03;87.75
20350;BME280;10332;50.208;18.988;2023-04-19T03:16:52;98038.66;;;12.24;86.88
20350;BME280;10332;50.208;18.988;2023-04-19T03:19:19;98034.59;;;12.19;86.91
20350;BME280;10332;50.208;18.988;2023-04-19T03:21:46;98049.31;;;12.09;87.65
20350;BME280;10332;50.208;18.988;2023-04-19T03:24:14;98049.03;;;12.01;88.12
20350;BME280;10332;50.208;18.988;2023-04-19T03:26:42;98050.25;;;11.97;88.39
20350;BME280;10332;50.208;18.988;2023-04-19T03:29:09;98044.44;;;12.05;88.36
20350;BME280;10332;50.208;18.988;2023-04-19T03:31:37;98038.00;;;11.98;88.17
20350;BME280;10332;50.208;18.988;2023-04-19T03:34:04;98034.75;;;11.94;88.24
20350;BME280;10332;50.208;18.988;2023-04-19T03:36:32;98034.91;;;11.69;90.31
20350;BME280;10332;50.208;18.988;2023-04-19T03:38:59;98032.41;;;11.43;90.62
20350;BME280;10332;50.208;18.988;2023-04-19T03:41:28;98035.09;;;11.65;89.79
20350;BME280;10332;50.208;18.988;2023-04-19T03:43:56;98024.91;;;11.50;90.92
20350;BME280;10332;50.208;18.988;2023-04-19T03:46:24;98027.22;;;11.54;90.93
20350;BME280;10332;50.208;18.988;2023-04-19T03:48:52;98017.59;;;11.55;91.03
20350;BME280;10332;50.208;18.988;2023-04-19T03:51:20;98014.25;;;11.53;91.15
20350;BME280;10332;50.208;18.988;2023-04-19T03:53:47;98011.28;;;11.57;90.95
20350;BME280;10332;50.208;18.988;2023-04-19T03:56:14;98014.56;;;11.48;91.71
20350;BME280;10332;50.208;18.988;2023-04-19T03:58:42;98010.84;;;11.63;91.25
20350;BME280;10332;50.208;18.988;2023-04-19T04:01:20;98002.19;;;11.39;92.46
20350;BME280;10332;50.208;18.988;2023-04-19T04:03:48;98002.91;;;11.41;92.24
20350;BME280;10332;50.208;18.988;2023-04-19T04:06:16;98007.19;;;11.42;92.18
20350;BME280;10332;50.208;18.988;2023-04-19T04:08:43;98002.31;;;11.73;90.64
20350;BME280;10332;50.208;18.988;2023-04-19T04:11:10;98007.97;;;11.55;91.48
20350;BME280;10332;50.208;18.988;2023-04-19T04:13:38;98003.78;;;11.29;93.02
20350;BME280;10332;50.208;18.988;2023-04-19T04:16:05;97999.53;;;11.28;93.13
20350;BME280;10332;50.208;18.988;2023-04-19T04:18:33;98004.47;;;11.44;92.65
20350;BME280;10332;50.208;18.988;2023-04-19T04:21:00;97995.97;;;11.29;92.86
20350;BME280;10332;50.208;18.988;2023-04-19T04:23:28;98004.06;;;11.37;92.24
20350;BME280;10332;50.208;18.988;2023-04-19T04:25:57;98002.06;;;11.41;92.03
20350;BME280;10332;50.208;18.988;2023-04-19T04:28:28;98001.63;;;11.23;93.00
20350;BME280;10332;50.208;18.988;2023-04-19T04:30:57;97995.00;;;11.30;92.85
20350;BME280;10332;50.208;18.988;2023-04-19T04:33:27;97989.63;;;11.44;92.09
20350;BME280;10332;50.208;18.988;2023-04-19T04:35:55;97984.47;;;11.66;90.77
20350;BME280;10332;50.208;18.988;2023-04-19T04:38:24;97987.31;;;11.63;90.63
20350;BME280;10332;50.208;18.988;2023-04-19T04:40:53;97981.81;;;11.55;90.85
20350;BME280;10332;50.208;18.988;2023-04-19T04:43:23;97989.81;;;11.65;90.62
20350;BME280;10332;50.208;18.988;2023-04-19T04:45:51;97992.44;;;11.65;90.53
20350;BME280;10332;50.208;18.988;2023-04-19T04:48:23;97998.63;;;11.75;89.50
20350;BME280;10332;50.208;18.988;2023-04-19T04:50:51;98002.00;;;11.77;89.54
20350;BME280;10332;50.208;18.988;2023-04-19T04:53:18;98011.91;;;11.85;89.57
20350;BME280;10332;50.208;18.988;2023-04-19T04:55:46;98010.41;;;12.05;89.38
20350;BME280;10332;50.208;18.988;2023-04-19T04:58:13;98006.75;;;12.18;88.86
20350;BME280;10332;50.208;18.988;2023-04-19T05:00:41;98008.19;;;12.34;88.58
20350;BME280;10332;50.208;18.988;2023-04-19T05:03:08;98005.38;;;12.59;87.71
20350;BME280;10332;50.208;18.988;2023-04-19T05:05:36;98005.59;;;12.78;86.85
20350;BME280;10332;50.208;18.988;2023-04-19T05:08:04;98001.03;;;12.92;86.21
20350;BME280;10332;50.208;18.988;2023-04-19T05:10:31;98002.34;;;12.97;85.61
20350;BME280;10332;50.208;18.988;2023-04-19T05:13:00;98000.78;;;13.06;85.22
20350;BME280;10332;50.208;18.988;2023-04-19T05:15:27;98006.72;;;13.19;84.77
20350;BME280;10332;50.208;18.988;2023-04-19T05:17:55;97995.63;;;13.27;83.88
20350;BME280;10332;50.208;18.988;2023-04-19T05:20:22;98002.91;;;13.23;83.58
20350;BME280;10332;50.208;18.988;2023-04-19T05:22:50;98002.31;;;13.20;83.36
20350;BME280;10332;50.208;18.988;2023-04-19T05:25:17;97996.81;;;13.34;82.90
20350;BME280;10332;50.208;18.988;2023-04-19T05:27:44;98006.13;;;13.59;82.30
20350;BME280;10332;50.208;18.988;2023-04-19T05:30:12;98002.28;;;13.63;81.47
20350;BME280;10332;50.208;18.988;2023-04-19T05:32:40;97996.91;;;13.64;81.56
20350;BME280;10332;50.208;18.988;2023-04-19T05:35:08;98000.41;;;13.54;81.62
20350;BME280;10332;50.208;18.988;2023-04-19T05:37:37;97996.97;;;13.53;81.70
20350;BME280;10332;50.208;18.988;2023-04-19T05:40:06;97993.91;;;13.48;81.74
20350;BME280;10332;50.208;18.988;2023-04-19T05:42:37;98000.69;;;13.51;81.50
20350;BME280;10332;50.208;18.988;2023-04-19T05:45:05;98001.22;;;13.33;81.96
20350;BME280;10332;50.208;18.988;2023-04-19T05:47:33;97991.47;;;13.24;82.12
20350;BME280;10332;50.208;18.988;2023-04-19T05:50:04;97996.72;;;13.24;82.21
20350;BME280;10332;50.208;18.988;2023-04-19T05:52:32;97993.41;;;13.22;82.03
20350;BME280;10332;50.208;18.988;2023-04-19T05:54:59;97997.34;;;13.05;82.25
20350;BME280;10332;50.208;18.988;2023-04-19T05:57:27;97996.72;;;13.02;82.51
20350;BME280;10332;50.208;18.988;2023-04-19T05:59:55;97996.63;;;13.03;82.50
20350;BME280;10332;50.208;18.988;2023-04-19T06:02:22;98003.19;;;12.87;82.58
20350;BME280;10332;50.208;18.988;2023-04-19T06:04:50;97995.34;;;12.53;83.55
20350;BME280;10332;50.208;18.988;2023-04-19T06:07:17;97988.19;;;12.21;84.73
20350;BME280;10332;50.208;18.988;2023-04-19T06:10:00;97999.59;;;12.09;84.71
20350;BME280;10332;50.208;18.988;2023-04-19T06:12:28;97996.19;;;11.85;84.34
20350;BME280;10332;50.208;18.988;2023-04-19T06:14:55;97998.59;;;11.88;83.95
20350;BME280;10332;50.208;18.988;2023-04-19T06:17:23;98000.53;;;11.97;83.44
20350;BME280;10332;50.208;18.988;2023-04-19T06:19:52;98006.59;;;11.98;82.63
20350;BME280;10332;50.208;18.988;2023-04-19T06:22:20;98004.63;;;11.53;84.21
20350;BME280;10332;50.208;18.988;2023-04-19T06:24:48;98008.63;;;11.70;83.59
20350;BME280;10332;50.208;18.988;2023-04-19T06:27:16;98008.97;;;11.77;83.28
20350;BME280;10332;50.208;18.988;2023-04-19T06:29:43;98015.56;;;11.58;83.36
20350;BME280;10332;50.208;18.988;2023-04-19T06:32:11;98017.69;;;11.53;82.46
20350;BME280;10332;50.208;18.988;2023-04-19T06:34:38;98011.59;;;11.77;81.82
20350;BME280;10332;50.208;18.988;2023-04-19T06:37:06;98018.16;;;12.17;79.85
20350;BME280;10332;50.208;18.988;2023-04-19T06:39:33;98019.94;;;12.17;79.58
20350;BME280;10332;50.208;18.988;2023-04-19T06:42:01;98017.66;;;12.12;77.66
20350;BME280;10332;50.208;18.988;2023-04-19T06:44:29;98011.72;;;11.99;76.17
20350;BME280;10332;50.208;18.988;2023-04-19T06:46:57;98021.03;;;12.26;74.83
20350;BME280;10332;50.208;18.988;2023-04-19T06:49:24;98023.56;;;12.49;74.34
20350;BME280;10332;50.208;18.988;2023-04-19T06:51:51;98036.56;;;11.70;76.57
20350;BME280;10332;50.208;18.988;2023-04-19T06:54:19;98025.03;;;12.07;76.18
20350;BME280;10332;50.208;18.988;2023-04-19T06:56:48;98027.03;;;12.61;75.87
20350;BME280;10332;50.208;18.988;2023-04-19T06:59:18;98027.03;;;12.50;76.09
20350;BME280;10332;50.208;18.988;2023-04-19T07:01:47;98020.00;;;12.50;76.02
20350;BME280;10332;50.208;18.988;2023-04-19T07:04:16;98019.97;;;12.39;75.83
20350;BME280;10332;50.208;18.988;2023-04-19T07:06:48;98025.34;;;12.83;74.38
20350;BME280;10332;50.208;18.988;2023-04-19T07:09:18;98021.66;;;12.40;74.93
20350;BME280;10332;50.208;18.988;2023-04-19T07:11:45;98021.78;;;12.72;74.20
20350;BME280;10332;50.208;18.988;2023-04-19T07:14:13;98031.19;;;12.64;74.55
20350;BME280;10332;50.208;18.988;2023-04-19T07:16:41;98032.13;;;12.52;75.04
20350;BME280;10332;50.208;18.988;2023-04-19T07:19:09;98037.25;;;12.53;74.44
20350;BME280;10332;50.208;18.988;2023-04-19T07:21:36;98031.19;;;12.64;74.48
20350;BME280;10332;50.208;18.988;2023-04-19T07:24:08;98033.56;;;12.89;72.36
20350;BME280;10332;50.208;18.988;2023-04-19T07:26:35;98037.38;;;12.85;72.98
20350;BME280;10332;50.208;18.988;2023-04-19T07:29:03;98040.72;;;11.96;74.07
20350;BME280;10332;50.208;18.988;2023-04-19T07:31:31;98041.03;;;11.68;74.66
20350;BME280;10332;50.208;18.988;2023-04-19T07:33:58;98048.16;;;11.65;73.74
20350;BME280;10332;50.208;18.988;2023-04-19T07:36:25;98048.56;;;11.72;74.21
20350;BME280;10332;50.208;18.988;2023-04-19T07:38:53;98052.13;;;11.95;74.00
20350;BME280;10332;50.208;18.988;2023-04-19T07:41:21;98052.84;;;11.97;74.49
20350;BME280;10332;50.208;18.988;2023-04-19T07:43:48;98052.63;;;12.11;74.42
20350;BME280;10332;50.208;18.988;2023-04-19T07:46:16;98056.44;;;11.96;75.02
20350;BME280;10332;50.208;18.988;2023-04-19T07:48:43;98050.94;;;11.75;75.61
20350;BME280;10332;50.208;18.988;2023-04-19T07:51:15;98052.97;;;11.72;76.37
20350;BME280;10332;50.208;18.988;2023-04-19T07:53:43;98048.06;;;11.67;83.72
20350;BME280;10332;50.208;18.988;2023-04-19T07:56:11;98044.56;;;11.79;80.59
20350;BME280;10332;50.208;18.988;2023-04-19T07:58:39;98049.16;;;12.00;79.37
20350;BME280;10332;50.208;18.988;2023-04-19T08:01:08;98048.75;;;12.17;78.37
20350;BME280;10332;50.208;18.988;2023-04-19T08:03:35;98047.66;;;12.19;78.22
20350;BME280;10332;50.208;18.988;2023-04-19T08:06:05;98041.69;;;12.06;77.82
20350;BME280;10332;50.208;18.988;2023-04-19T08:08:36;98040.31;;;12.36;76.92
20350;BME280;10332;50.208;18.988;2023-04-19T08:11:04;98038.19;;;12.41;76.45
20350;BME280;10332;50.208;18.988;2023-04-19T08:13:32;98037.13;;;12.66;75.37
20350;BME280;10332;50.208;18.988;2023-04-19T08:16:00;98041.41;;;12.56;75.97
20350;BME280;10332;50.208;18.988;2023-04-19T08:18:31;98035.00;;;12.71;76.39
20350;BME280;10332;50.208;18.988;2023-04-19T08:20:59;98042.84;;;13.04;76.09
20350;BME280;10332;50.208;18.988;2023-04-19T08:23:26;98033.66;;;12.99;75.08
20350;BME280;10332;50.208;18.988;2023-04-19T08:26:07;98032.16;;;13.51;74.42
20350;BME280;10332;50.208;18.988;2023-04-19T08:28:35;98041.59;;;13.74;72.71
20350;BME280;10332;50.208;18.988;2023-04-19T08:31:05;98036.66;;;14.13;69.97
20350;BME280;10332;50.208;18.988;2023-04-19T08:33:36;98033.16;;;14.75;68.35
20350;BME280;10332;50.208;18.988;2023-04-19T08:36:04;98036.06;;;14.82;67.06
20350;BME280;10332;50.208;18.988;2023-04-19T08:38:31;98037.75;;;15.42;65.11
20350;BME280;10332;50.208;18.988;2023-04-19T08:41:00;98039.19;;;16.04;61.22
20350;BME280;10332;50.208;18.988;2023-04-19T08:43:29;98039.78;;;16.74;58.84
20350;BME280;10332;50.208;18.988;2023-04-19T08:46:01;98036.63;;;17.43;56.27
20350;BME280;10332;50.208;18.988;2023-04-19T08:48:33;98037.50;;;18.41;52.98
20350;BME280;10332;50.208;18.988;2023-04-19T08:51:03;98034.78;;;19.19;51.39
20350;BME280;10332;50.208;18.988;2023-04-19T08:53:35;98040.84;;;19.03;49.31
20350;BME280;10332;50.208;18.988;2023-04-19T08:56:06;98033.81;;;18.08;51.10
20350;BME280;10332;50.208;18.988;2023-04-19T08:58:46;98030.78;;;15.91;56.16
20350;BME280;10332;50.208;18.988;2023-04-19T09:01:34;98026.16;;;16.22;55.18
20350;BME280;10332;50.208;18.988;2023-04-19T09:04:04;98026.19;;;15.83;55.23
20350;BME280;10332;50.208;18.988;2023-04-19T09:06:53;98028.19;;;16.38;54.72
20350;BME280;10332;50.208;18.988;2023-04-19T09:09:24;98020.59;;;17.54;52.19
20350;BME280;10332;50.208;18.988;2023-04-19T09:11:55;98030.19;;;18.09;51.06
20350;BME280;10332;50.208;18.988;2023-04-19T09:14:25;98010.81;;;18.26;50.64
20350;BME280;10332;50.208;18.988;2023-04-19T09:17:10;98029.88;;;19.40;48.75
20350;BME280;10332;50.208;18.988;2023-04-19T09:19:47;98019.72;;;18.77;48.59
20350;BME280;10332;50.208;18.988;2023-04-19T09:22:15;98018.88;;;18.51;48.83
20350;BME280;10332;50.208;18.988;2023-04-19T09:24:43;98019.53;;;18.44;49.37
20350;BME280;10332;50.208;18.988;2023-04-19T09:27:35;98015.84;;;17.94;50.07
20350;BME280;10332;50.208;18.988;2023-04-19T09:30:05;98016.91;;;18.01;49.97
20350;BME280;10332;50.208;18.988;2023-04-19T09:32:46;98016.34;;;17.44;51.05
20350;BME280;10332;50.208;18.988;2023-04-19T09:35:15;98020.19;;;16.67;52.89
20350;BME280;10332;50.208;18.988;2023-04-19T09:37:58;98018.84;;;16.53;53.41
20350;BME280;10332;50.208;18.988;2023-04-19T09:40:33;98020.91;;;16.59;54.12
20350;BME280;10332;50.208;18.988;2023-04-19T09:43:01;98013.59;;;16.43;54.38
20350;BME280;10332;50.208;18.988;2023-04-19T09:45:49;98025.59;;;15.99;55.01
20350;BME280;10332;50.208;18.988;2023-04-19T09:48:17;98023.63;;;16.30;54.70
20350;BME280;10332;50.208;18.988;2023-04-19T09:53:30;98031.66;;;16.38;54.17
20350;BME280;10332;50.208;18.988;2023-04-19T09:56:01;98028.09;;;16.20;55.63
20350;BME280;10332;50.208;18.988;2023-04-19T09:58:30;98026.56;;;15.98;56.45
20350;BME280;10332;50.208;18.988;2023-04-19T10:01:16;98024.88;;;15.39;58.49
20350;BME280;10332;50.208;18.988;2023-04-19T10:03:48;98031.78;;;15.21;59.74
20350;BME280;10332;50.208;18.988;2023-04-19T10:06:18;98028.06;;;14.83;60.67
20350;BME280;10332;50.208;18.988;2023-04-19T10:08:52;98034.47;;;14.60;62.24
20350;BME280;10332;50.208;18.988;2023-04-19T10:11:21;98034.00;;;14.34;63.02
20350;BME280;10332;50.208;18.988;2023-04-19T10:13:53;98024.91;;;14.17;63.96
20350;BME280;10332;50.208;18.988;2023-04-19T10:16:23;98029.97;;;14.09;64.86
20350;BME280;10332;50.208;18.988;2023-04-19T10:18:52;98030.31;;;13.95;65.41
20350;BME280;10332;50.208;18.988;2023-04-19T10:21:21;98021.34;;;13.76;65.70
20350;BME280;10332;50.208;18.988;2023-04-19T10:23:49;98023.97;;;13.65;66.37
20350;BME280;10332;50.208;18.988;2023-04-19T10:26:16;98022.78;;;13.69;66.46
20350;BME280;10332;50.208;18.988;2023-04-19T10:28:46;98031.09;;;13.74;66.31
20350;BME280;10332;50.208;18.988;2023-04-19T10:31:13;98025.03;;;13.74;66.49
20350;BME280;10332;50.208;18.988;2023-04-19T10:33:41;98034.19;;;13.79;66.83
20350;BME280;10332;50.208;18.988;2023-04-19T10:36:13;98023.63;;;14.32;65.37
20350;BME280;10332;50.208;18.988;2023-04-19T10:38:45;98017.44;;;14.94;63.20
20350;BME280;10332;50.208;18.988;2023-04-19T10:41:15;98014.50;;;15.28;62.45
20350;BME280;10332;50.208;18.988;2023-04-19T10:49:00;98024.72;;;15.31;61.72
20350;BME280;10332;50.208;18.988;2023-04-19T10:51:39;98029.22;;;15.10;61.55
20350;BME280;10332;50.208;18.988;2023-04-19T10:54:31;98038.41;;;14.75;62.21
20350;BME280;10332;50.208;18.988;2023-04-19T10:57:02;98039.97;;;14.36;63.05
20350;BME280;10332;50.208;18.988;2023-04-19T11:02:47;98042.47;;;14.16;64.40
20350;BME280;10332;50.208;18.988;2023-04-19T11:07:19;98043.31;;;13.96;65.04
20350;BME280;10332;50.208;18.988;2023-04-19T11:09:50;98051.34;;;13.83;65.27
20350;BME280;10332;50.208;18.988;2023-04-19T11:12:20;98046.81;;;13.85;65.58
20350;BME280;10332;50.208;18.988;2023-04-19T11:14:54;98050.44;;;13.73;66.35
20350;BME280;10332;50.208;18.988;2023-04-19T11:17:29;98057.84;;;13.68;66.65
20350;BME280;10332;50.208;18.988;2023-04-19T11:20:07;98048.25;;;13.57;67.06
20350;BME280;10332;50.208;18.988;2023-04-19T11:22:45;98052.53;;;13.58;66.77
20350;BME280;10332;50.208;18.988;2023-04-19T11:27:48;98043.91;;;13.24;67.13
20350;BME280;10332;50.208;18.988;2023-04-19T11:30:20;98034.47;;;13.33;67.22
20350;BME280;10332;50.208;18.988;2023-04-19T11:32:54;98040.06;;;13.28;67.61
20350;BME280;10332;50.208;18.988;2023-04-19T11:35:25;98034.00;;;13.39;67.47
20350;BME280;10332;50.208;18.988;2023-04-19T11:37:54;98033.78;;;13.20;68.25
20350;BME280;10332;50.208;18.988;2023-04-19T11:40:24;98042.44;;;13.43;67.62
20350;BME280;10332;50.208;18.988;2023-04-19T11:42:59;98044.56;;;13.49;67.70
20350;BME280;10332;50.208;18.988;2023-04-19T11:45:35;98048.34;;;13.56;67.40
20350;BME280;10332;50.208;18.988;2023-04-19T11:48:13;98049.56;;;13.52;67.50
20350;BME280;10332;50.208;18.988;2023-04-19T11:50:44;98047.69;;;13.43;67.57
20350;BME280;10332;50.208;18.988;2023-04-19T11:53:23;98045.06;;;13.43;67.82
20350;BME280;10332;50.208;18.988;2023-04-19T11:56:03;98046.88;;;13.31;67.89
20350;BME280;10332;50.208;18.988;2023-04-19T11:58:45;98048.19;;;13.14;68.61
20350;BME280;10332;50.208;18.988;2023-04-19T12:01:19;98046.28;;;13.27;68.60
20350;BME280;10332;50.208;18.988;2023-04-19T12:03:52;98044.59;;;13.38;69.29
20350;BME280;10332;50.208;18.988;2023-04-19T12:06:29;98044.34;;;13.29;69.52
20350;BME280;10332;50.208;18.988;2023-04-19T12:08:58;98041.00;;;13.39;69.04
20350;BME280;10332;50.208;18.988;2023-04-19T12:11:46;98043.16;;;13.33;69.95
20350;BME280;10332;50.208;18.988;2023-04-19T12:14:18;98048.59;;;13.53;69.30
20350;BME280;10332;50.208;18.988;2023-04-19T12:17:09;98051.72;;;13.47;68.70
20350;BME280;10332;50.208;18.988;2023-04-19T12:19:44;98049.34;;;13.44;68.49
20350;BME280;10332;50.208;18.988;2023-04-19T12:22:18;98047.09;;;13.39;68.34
20350;BME280;10332;50.208;18.988;2023-04-19T12:24:52;98054.72;;;13.42;67.90
20350;BME280;10332;50.208;18.988;2023-04-19T12:27:20;98052.09;;;13.42;67.85
20350;BME280;10332;50.208;18.988;2023-04-19T12:29:47;98052.44;;;13.38;67.82
20350;BME280;10332;50.208;18.988;2023-04-19T12:32:15;98052.00;;;13.32;67.78
20350;BME280;10332;50.208;18.988;2023-04-19T12:34:42;98057.25;;;13.32;68.01
20350;BME280;10332;50.208;18.988;2023-04-19T12:37:10;98059.16;;;13.19;68.23
20350;BME280;10332;50.208;18.988;2023-04-19T12:39:38;98055.94;;;13.16;68.56
20350;BME280;10332;50.208;18.988;2023-04-19T12:42:05;98059.25;;;13.18;68.88
20350;BME280;10332;50.208;18.988;2023-04-19T12:44:33;98064.28;;;13.21;69.05
20350;BME280;10332;50.208;18.988;2023-04-19T12:47:00;98063.19;;;13.01;69.03
20350;BME280;10332;50.208;18.988;2023-04-19T12:49:28;98068.34;;;12.91;69.01
20350;BME280;10332;50.208;18.988;2023-04-19T12:51:55;98055.34;;;12.90;69.68
20350;BME280;10332;50.208;18.988;2023-04-19T12:54:23;98067.50;;;12.91;70.03
20350;BME280;10332;50.208;18.988;2023-04-19T12:56:51;98063.22;;;12.78;70.59
20350;BME280;10332;50.208;18.988;2023-04-19T12:59:19;98063.69;;;12.72;70.84
20350;BME280;10332;50.208;18.988;2023-04-19T13:01:48;98061.78;;;12.63;71.89
20350;BME280;10332;50.208;18.988;2023-04-19T13:04:16;98057.25;;;12.54;72.96
20350;BME280;10332;50.208;18.988;2023-04-19T13:06:44;98061.06;;;12.50;73.58
20350;BME280;10332;50.208;18.988;2023-04-19T13:09:12;98056.88;;;12.47;73.56
20350;BME280;10332;50.208;18.988;2023-04-19T13:11:41;98062.00;;;12.49;73.42
20350;BME280;10332;50.208;18.988;2023-04-19T13:14:09;98062.00;;;12.49;73.72
20350;BME280;10332;50.208;18.988;2023-04-19T13:16:36;98062.59;;;12.41;73.75
20350;BME280;10332;50.208;18.988;2023-04-19T13:19:04;98057.09;;;12.33;73.91